Time;durP1;ratioP1;P1;durP2;ratioP2;P2;SDS_P1;SDS_P2;PMS_P1;PMS_P2;Temp;Humidity;BMP_temperature;BMP_pressure;BME280_temperature;BME280_humidity;BME280_pressure;Samples;Min_cycle;Max_cycle;Signal;HPM_P1;HPM_P2
2023/06/04 00:00:10;;;;;;;4.18;2.00;;;12.00;99.90;;;;;;4191635;28;20041;-85
2023/06/04 00:02:11;;;;;;;5.22;2.15;;;12.00;99.90;;;;;;4199164;28;20049;-86
2023/06/04 00:04:12;;;;;;;5.45;1.90;;;11.50;99.90;;;;;;4198206;28;20056;-86
2023/06/04 00:06:13;;;;;;;5.50;2.10;;;11.90;99.90;;;;;;4199665;28;20091;-86
2023/06/04 00:08:15;;;;;;;8.15;2.05;;;11.80;99.90;;;;;;4198104;28;20033;-86
2023/06/04 00:10:15;;;;;;;4.50;2.35;;;11.80;99.90;;;;;;4181317;28;20132;-85
2023/06/04 00:12:16;;;;;;;3.45;1.85;;;11.80;99.90;;;;;;4180455;28;20060;-86
2023/06/04 00:14:17;;;;;;;6.75;2.30;;;11.50;99.90;;;;;;4198564;28;20072;-86
2023/06/04 00:16:18;;;;;;;6.93;2.60;;;11.70;99.90;;;;;;4199665;28;20032;-86
2023/06/04 00:18:19;;;;;;;6.00;2.22;;;11.70;99.90;;;;;;4189919;28;20493;-86
2023/06/04 00:20:20;;;;;;;7.68;2.10;;;11.70;99.90;;;;;;4199892;28;20072;-85
2023/06/04 00:22:21;;;;;;;7.43;3.20;;;11.70;99.90;;;;;;4183049;28;20067;-86
2023/06/04 00:24:22;;;;;;;7.00;2.60;;;11.60;99.90;;;;;;4202355;28;20052;-85
2023/06/04 00:26:22;;;;;;;6.35;2.10;;;11.60;99.90;;;;;;4201955;28;20044;-85
2023/06/04 00:28:23;;;;;;;4.88;2.10;;;11.60;99.90;;;;;;4201963;28;20044;-86
2023/06/04 00:30:24;;;;;;;8.05;2.35;;;11.60;99.90;;;;;;4183847;28;20072;-86
2023/06/04 00:32:25;;;;;;;4.97;2.30;;;11.60;99.90;;;;;;4183899;28;20091;-86
2023/06/04 00:34:25;;;;;;;5.28;2.20;;;11.60;99.90;;;;;;4203232;28;20040;-86
2023/06/04 00:36:26;;;;;;;8.93;3.13;;;11.50;99.90;;;;;;4198472;28;20045;-86
2023/06/04 00:38:27;;;;;;;4.38;2.40;;;11.50;99.90;;;;;;4219087;28;20074;-86
2023/06/04 00:40:30;;;;;;;7.88;2.75;;;11.50;99.90;;;;;;4200102;28;20049;-86
2023/06/04 00:42:31;;;;;;;8.32;3.30;;;11.50;99.90;;;;;;4218725;28;20070;-86
2023/06/04 00:44:33;;;;;;;6.88;2.35;;;11.40;99.90;;;;;;4200308;28;20056;-86
2023/06/04 00:46:35;;;;;;;6.38;3.00;;;11.40;99.90;;;;;;4218140;28;20123;-85
2023/06/04 00:48:38;;;;;;;3.78;2.40;;;11.40;99.90;;;;;;4200306;28;20040;-85
2023/06/04 00:50:40;;;;;;;6.75;2.17;;;11.40;99.90;;;;;;4218336;28;20488;-86
2023/06/04 00:52:41;;;;;;;7.65;2.60;;;11.40;99.90;;;;;;4212832;28;20072;-85
2023/06/04 00:54:42;;;;;;;6.15;2.40;;;11.30;99.90;;;;;;4183235;28;20052;-86
2023/06/04 00:56:44;;;;;;;6.32;2.65;;;11.30;99.90;;;;;;4201987;28;20104;-86
2023/06/04 00:58:46;;;;;;;5.95;2.13;;;11.30;99.90;;;;;;4201476;28;20048;-86
2023/06/04 01:00:47;;;;;;;6.30;2.38;;;11.30;99.90;;;;;;4183568;28;20132;-86
2023/06/04 01:02:53;;;;;;;8.18;2.92;;;11.30;99.90;;;;;;4182429;28;20045;-86
2023/06/04 01:05:14;;;;;;;6.32;2.20;;;11.20;99.90;;;;;;4200620;28;20040;-86
2023/06/04 01:07:16;;;;;;;5.47;2.45;;;11.20;99.90;;;;;;4167144;28;20058;-86
2023/06/04 01:09:18;;;;;;;5.40;2.25;;;11.20;99.90;;;;;;4166999;28;20048;-86
2023/06/04 01:11:18;;;;;;;4.20;2.53;;;11.20;99.90;;;;;;4200077;28;20484;-86
2023/06/04 01:13:19;;;;;;;9.68;2.60;;;11.10;99.90;;;;;;4183692;28;20056;-88
2023/06/04 01:15:26;;;;;;;9.38;2.95;;;11.10;99.90;;;;;;4182513;28;20055;-85
2023/06/04 01:17:51;;;;;;;8.38;3.00;;;11.10;99.90;;;;;;4200487;28;20370;-86
2023/06/04 01:19:59;;;;;;;6.65;2.63;;;11.10;99.90;;;;;;4181631;28;20052;-86
2023/06/04 01:22:08;;;;;;;8.15;2.40;;;11.10;99.90;;;;;;4201112;28;20065;-86
2023/06/04 01:24:10;;;;;;;8.98;2.80;;;11.10;99.90;;;;;;4182522;28;20139;-86
2023/06/04 01:26:11;;;;;;;7.20;2.70;;;11.00;99.90;;;;;;4200026;28;20055;-86
2023/06/04 01:28:15;;;;;;;4.35;2.28;;;11.00;99.90;;;;;;4187970;28;20036;-86
2023/06/04 01:30:17;;;;;;;9.55;2.88;;;11.00;99.90;;;;;;4200588;28;20523;-86
2023/06/04 01:32:18;;;;;;;8.43;3.63;;;11.00;99.90;;;;;;4182728;28;20045;-85
2023/06/04 01:34:19;;;;;;;7.95;3.55;;;11.00;99.90;;;;;;4199546;28;20076;-86
2023/06/04 01:36:20;;;;;;;7.18;2.50;;;11.00;99.90;;;;;;4182800;28;20048;-86
2023/06/04 01:38:21;;;;;;;8.05;2.47;;;11.00;99.90;;;;;;4199373;28;20494;-86
2023/06/04 01:40:23;;;;;;;6.53;2.30;;;10.90;99.90;;;;;;4200212;28;20534;-86
2023/06/04 01:42:23;;;;;;;7.38;3.10;;;11.00;99.90;;;;;;4181647;28;20049;-86
2023/06/04 01:44:24;;;;;;;7.43;2.58;;;10.90;99.90;;;;;;4193547;28;20079;-86
2023/06/04 01:46:28;;;;;;;10.32;3.72;;;11.00;99.90;;;;;;4200084;28;20045;-86
2023/06/04 01:48:29;;;;;;;4.88;2.08;;;10.90;99.90;;;;;;4181410;28;20041;-85
2023/06/04 01:50:30;;;;;;;9.55;4.22;;;10.90;99.90;;;;;;4199605;28;20137;-86
2023/06/04 01:52:32;;;;;;;7.47;3.50;;;10.80;99.90;;;;;;4199564;28;20385;-86
2023/06/04 01:54:33;;;;;;;8.10;2.22;;;10.80;99.90;;;;;;4182442;28;20053;-86
2023/06/04 01:56:34;;;;;;;7.90;2.83;;;10.80;99.90;;;;;;4199842;28;20115;-86
2023/06/04 01:58:35;;;;;;;6.97;2.40;;;10.70;99.90;;;;;;4182609;28;20052;-86
2023/06/04 02:00:37;;;;;;;5.35;2.58;;;10.70;99.90;;;;;;4203714;28;20065;-87
2023/06/04 02:02:38;;;;;;;7.55;2.72;;;10.70;99.90;;;;;;4192314;28;20060;-86
2023/06/04 02:04:44;;;;;;;7.70;3.45;;;10.70;99.90;;;;;;4182237;28;20041;-86
2023/06/04 02:06:45;;;;;;;5.90;2.20;;;10.70;99.90;;;;;;4165627;28;20517;-87
2023/06/04 02:08:46;;;;;;;3.83;2.22;;;10.60;99.90;;;;;;4181685;28;20049;-86
2023/06/04 02:10:48;;;;;;;6.05;2.38;;;10.60;99.90;;;;;;4199035;28;20117;-87
2023/06/04 02:13:04;;;;;;;6.38;2.50;;;10.50;99.90;;;;;;4199406;28;20485;-86
2023/06/04 02:15:23;;;;;;;4.97;2.33;;;11.10;99.90;;;;;;4197331;28;20053;-86
2023/06/04 02:17:25;;;;;;;3.55;1.77;;;10.50;99.90;;;;;;4198352;28;20041;-86
2023/06/04 02:19:26;;;;;;;5.93;2.45;;;10.50;99.90;;;;;;4180232;28;20079;-86
2023/06/04 02:21:27;;;;;;;6.57;1.70;;;10.40;99.90;;;;;;4214117;28;20077;-86
2023/06/04 02:23:28;;;;;;;3.67;2.05;;;10.40;99.90;;;;;;4215346;28;20044;-86
2023/06/04 02:25:29;;;;;;;5.15;1.83;;;10.40;99.90;;;;;;4195920;28;20044;-86
2023/06/04 02:27:31;;;;;;;6.10;2.83;;;10.30;99.90;;;;;;4180384;28;20052;-86
2023/06/04 02:29:33;;;;;;;8.52;2.10;;;10.30;99.90;;;;;;4215991;28;20097;-87
2023/06/04 02:31:34;;;;;;;5.28;2.10;;;10.20;99.90;;;;;;4193583;28;20045;-86
2023/06/04 02:33:35;;;;;;;5.75;1.92;;;10.20;99.90;;;;;;4198743;28;20047;-85
2023/06/04 02:35:36;;;;;;;4.00;2.30;;;10.20;99.90;;;;;;4181164;28;20041;-86
2023/06/04 02:37:37;;;;;;;3.75;1.80;;;10.20;99.90;;;;;;4189415;28;20048;-84
2023/06/04 02:39:38;;;;;;;4.45;2.33;;;10.10;99.90;;;;;;4196859;28;20047;-85
2023/06/04 02:41:39;;;;;;;3.40;1.55;;;10.10;99.90;;;;;;4196714;28;20052;-85
2023/06/04 02:43:39;;;;;;;6.07;1.60;;;10.10;99.90;;;;;;4197079;28;20579;-85
2023/06/04 02:45:40;;;;;;;3.80;1.30;;;10.10;99.90;;;;;;4196742;28;20055;-85
2023/06/04 02:47:41;;;;;;;2.65;1.63;;;10.10;99.90;;;;;;4214968;28;20400;-85
2023/06/04 02:49:47;;;;;;;3.90;1.50;;;10.00;99.90;;;;;;4180811;28;20053;-84
2023/06/04 02:51:50;;;;;;;2.67;1.67;;;10.00;99.90;;;;;;4197046;28;20123;-85
2023/06/04 02:53:52;;;;;;;2.75;1.20;;;10.00;99.90;;;;;;4192026;28;20057;-86
2023/06/04 02:55:52;;;;;;;3.60;1.30;;;10.00;99.90;;;;;;4187447;28;20055;-86
2023/06/04 02:57:53;;;;;;;1.40;1.17;;;10.00;99.90;;;;;;4181630;28;20045;-85
2023/06/04 02:59:55;;;;;;;1.73;0.90;;;10.00;99.90;;;;;;4198251;28;20044;-85
2023/06/04 03:01:56;;;;;;;2.50;1.20;;;10.00;99.90;;;;;;4182210;28;20481;-85
2023/06/04 03:03:57;;;;;;;4.22;1.15;;;9.90;99.90;;;;;;4199433;28;20044;-85
2023/06/04 03:05:59;;;;;;;2.60;1.40;;;9.90;99.90;;;;;;4180529;28;20045;-86
2023/06/04 03:08:02;;;;;;;6.28;1.30;;;9.90;99.90;;;;;;4181704;28;19921;-84
2023/06/04 03:10:04;;;;;;;2.17;1.05;;;9.80;99.90;;;;;;4198802;28;20051;-86
2023/06/04 03:12:05;;;;;;;4.25;1.50;;;9.80;99.90;;;;;;4182038;28;20048;-86
2023/06/04 03:14:10;;;;;;;4.80;1.52;;;9.80;99.90;;;;;;4197372;28;20126;-86
2023/06/04 03:16:11;;;;;;;7.15;2.35;;;9.80;99.90;;;;;;4181325;28;20421;-86
2023/06/04 03:18:11;;;;;;;4.30;1.20;;;9.70;99.90;;;;;;4182191;28;20128;-87
2023/06/04 03:20:12;;;;;;;7.93;2.15;;;9.80;99.90;;;;;;4198426;28;20072;-86
2023/06/04 03:22:13;;;;;;;2.22;1.52;;;9.70;99.90;;;;;;4199770;28;20488;-86
2023/06/04 03:24:14;;;;;;;6.28;1.90;;;9.80;99.90;;;;;;4181234;28;20175;-86
2023/06/04 03:26:16;;;;;;;5.40;2.28;;;9.80;99.90;;;;;;4181434;28;20052;-86
2023/06/04 03:28:24;;;;;;;4.60;1.40;;;9.80;99.90;;;;;;4197207;28;20052;-86
2023/06/04 03:30:25;;;;;;;3.42;1.10;;;9.80;99.90;;;;;;4183904;28;20476;-86
2023/06/04 03:32:25;;;;;;;4.47;1.20;;;9.80;99.90;;;;;;4181803;28;20132;-85
2023/06/04 03:34:27;;;;;;;3.28;1.25;;;9.70;99.90;;;;;;4180699;28;20049;-86
2023/06/04 03:36:31;;;;;;;3.58;1.60;;;9.80;99.90;;;;;;4199618;28;20126;-86
2023/06/04 03:38:32;;;;;;;3.00;1.88;;;9.70;99.90;;;;;;4199269;28;20052;-85
2023/06/04 03:40:33;;;;;;;3.03;1.63;;;9.70;99.90;;;;;;4181615;28;20104;-86
2023/06/04 03:42:36;;;;;;;6.55;1.60;;;9.70;99.90;;;;;;4199523;28;20040;-86
2023/06/04 03:44:37;;;;;;;6.10;2.20;;;9.70;99.90;;;;;;4182319;28;20049;-86
2023/06/04 03:46:38;;;;;;;3.35;1.65;;;9.70;99.90;;;;;;4181900;28;20047;-87
2023/06/04 03:48:42;;;;;;;4.60;1.90;;;9.70;99.90;;;;;;4197628;28;20068;-86
2023/06/04 03:50:45;;;;;;;7.32;2.40;;;9.70;99.90;;;;;;4197928;28;20041;-86
2023/06/04 03:52:50;;;;;;;4.55;1.95;;;9.70;99.90;;;;;;4180312;28;20110;-85
2023/06/04 03:54:51;;;;;;;4.90;2.10;;;9.70;99.90;;;;;;4199256;28;20044;-86
2023/06/04 03:56:52;;;;;;;5.32;1.98;;;9.70;99.90;;;;;;4184105;28;20099;-86
2023/06/04 03:58:53;;;;;;;3.05;1.90;;;9.70;99.90;;;;;;4183814;28;20119;-85
2023/06/04 04:00:53;;;;;;;4.50;1.95;;;9.70;99.90;;;;;;4184636;28;20056;-86
2023/06/04 04:02:56;;;;;;;4.25;2.03;;;9.70;99.90;;;;;;4201459;28;20082;-85
2023/06/04 04:04:57;;;;;;;5.97;1.85;;;9.70;99.90;;;;;;4184347;28;20409;-86
2023/06/04 04:06:57;;;;;;;5.13;1.88;;;9.70;99.90;;;;;;4209943;28;20035;-85
2023/06/04 04:08:58;;;;;;;4.35;1.70;;;9.80;99.90;;;;;;4200748;28;20084;-85
2023/06/04 04:11:01;;;;;;;6.13;1.90;;;9.70;99.90;;;;;;4200066;28;20044;-85
2023/06/04 04:13:01;;;;;;;2.88;1.40;;;9.80;99.90;;;;;;4217540;28;20048;-85
2023/06/04 04:15:02;;;;;;;6.93;1.77;;;9.70;99.90;;;;;;4200543;28;20049;-86
2023/06/04 04:17:03;;;;;;;5.72;1.70;;;9.80;99.90;;;;;;4182893;28;20091;-86
2023/06/04 04:19:07;;;;;;;4.15;2.15;;;9.80;99.90;;;;;;4219611;28;20081;-86
2023/06/04 04:21:08;;;;;;;3.83;1.90;;;9.80;99.90;;;;;;4218335;28;20136;-86
2023/06/04 04:23:11;;;;;;;5.03;1.77;;;9.80;99.90;;;;;;4194163;28;20453;-86
2023/06/04 04:25:12;;;;;;;7.15;2.05;;;9.80;99.90;;;;;;4218243;28;20048;-85
2023/06/04 04:27:12;;;;;;;8.23;2.15;;;9.90;99.90;;;;;;4199483;28;20459;-86
2023/06/04 04:29:14;;;;;;;3.03;1.77;;;9.90;99.90;;;;;;4200612;28;20507;-85
2023/06/04 04:31:15;;;;;;;10.13;2.90;;;10.00;99.90;;;;;;4199847;28;20041;-86
2023/06/04 04:33:16;;;;;;;7.10;2.60;;;10.00;99.90;;;;;;4219215;28;20040;-86
2023/06/04 04:35:19;;;;;;;4.53;2.22;;;10.00;99.90;;;;;;4218201;28;20450;-86
2023/06/04 04:37:24;;;;;;;3.58;2.58;;;10.00;99.90;;;;;;4201221;28;20041;-87
2023/06/04 04:39:26;;;;;;;5.35;2.85;;;10.10;99.90;;;;;;4212986;28;20530;-86
2023/06/04 04:41:27;;;;;;;3.95;2.50;;;10.10;99.90;;;;;;4184381;28;20049;-86
2023/06/04 04:43:31;;;;;;;5.47;2.70;;;10.20;99.90;;;;;;4201220;28;20456;-85
2023/06/04 04:45:32;;;;;;;11.68;4.10;;;10.20;99.90;;;;;;4182672;28;20056;-86
2023/06/04 04:47:33;;;;;;;10.88;3.63;;;10.30;99.90;;;;;;4182943;28;20509;-85
2023/06/04 04:49:34;;;;;;;5.32;2.63;;;10.40;99.90;;;;;;4182531;28;20044;-86
2023/06/04 04:51:35;;;;;;;5.95;2.65;;;10.40;99.90;;;;;;4167539;28;20050;-85
2023/06/04 04:53:36;;;;;;;7.88;3.10;;;10.50;99.90;;;;;;4201834;28;20045;-85
2023/06/04 04:55:37;;;;;;;5.90;3.25;;;10.50;99.90;;;;;;4182501;28;20106;-86
2023/06/04 04:57:39;;;;;;;8.40;3.50;;;10.60;99.90;;;;;;4184088;28;20102;-86
2023/06/04 04:59:43;;;;;;;6.03;2.95;;;10.60;99.90;;;;;;4207262;28;20052;-86
2023/06/04 05:01:44;;;;;;;7.18;3.22;;;10.60;99.90;;;;;;4172971;28;20049;-88
2023/06/04 05:03:46;;;;;;;8.13;3.60;;;10.70;99.90;;;;;;4182133;28;20081;-87
2023/06/04 05:05:47;;;;;;;7.32;3.05;;;10.80;99.90;;;;;;4182713;28;20124;-86
2023/06/04 05:07:55;;;;;;;10.48;3.83;;;10.90;99.90;;;;;;4185150;28;20056;-87
2023/06/04 05:09:56;;;;;;;6.88;3.45;;;10.90;99.90;;;;;;4209520;28;20119;-87
2023/06/04 05:11:57;;;;;;;9.90;3.95;;;11.00;99.90;;;;;;4218929;28;20036;-87
2023/06/04 05:13:58;;;;;;;7.95;3.45;;;11.10;99.90;;;;;;4215320;28;20101;-87
2023/06/04 05:15:59;;;;;;;10.80;3.65;;;11.10;99.90;;;;;;4234202;28;20044;-87
2023/06/04 05:18:07;;;;;;;10.23;4.03;;;11.10;99.90;;;;;;4185628;28;20433;-87
2023/06/04 05:20:11;;;;;;;5.95;3.35;;;11.30;99.90;;;;;;4183803;28;20045;-87
2023/06/04 05:22:12;;;;;;;7.97;3.83;;;11.40;99.90;;;;;;4199937;28;20065;-86
2023/06/04 05:24:13;;;;;;;7.30;3.65;;;11.40;99.90;;;;;;4183446;28;20492;-86
2023/06/04 05:26:14;;;;;;;9.18;4.47;;;11.50;99.90;;;;;;4166332;28;20045;-86
2023/06/04 05:28:15;;;;;;;9.13;3.70;;;11.50;99.90;;;;;;4193535;28;20825;-87
2023/06/04 05:30:16;;;;;;;7.55;4.25;;;11.60;99.90;;;;;;4170197;28;20060;-87
2023/06/04 05:32:17;;;;;;;9.77;4.55;;;11.70;99.90;;;;;;4183373;28;20045;-88
2023/06/04 05:34:18;;;;;;;10.68;4.88;;;11.80;99.90;;;;;;4185941;28;20548;-88
2023/06/04 05:36:20;;;;;;;11.05;5.07;;;11.90;99.90;;;;;;4183721;28;20040;-87
2023/06/04 05:38:25;;;;;;;14.45;5.10;;;11.70;99.90;;;;;;4165903;28;20053;-87
2023/06/04 05:40:27;;;;;;;13.18;4.68;;;12.10;99.90;;;;;;4199512;28;20536;-87
2023/06/04 05:42:28;;;;;;;9.98;4.32;;;12.20;99.90;;;;;;4182596;28;20053;-87
2023/06/04 05:44:28;;;;;;;12.07;4.45;;;12.30;99.90;;;;;;4166414;28;20128;-87
2023/06/04 05:46:29;;;;;;;9.50;5.13;;;12.40;99.90;;;;;;4177703;28;20068;-87
2023/06/04 05:48:30;;;;;;;15.48;5.00;;;12.40;99.90;;;;;;4200378;28;20040;-88
2023/06/04 05:50:31;;;;;;;9.32;4.57;;;12.50;99.90;;;;;;4198964;28;20127;-87
2023/06/04 05:52:36;;;;;;;10.30;5.03;;;12.60;99.90;;;;;;4181109;28;20087;-87
2023/06/04 05:54:37;;;;;;;11.95;4.85;;;12.70;99.90;;;;;;4183814;28;20082;-88
2023/06/04 05:56:38;;;;;;;11.02;4.53;;;12.80;99.90;;;;;;4182709;28;20140;-88
2023/06/04 05:58:39;;;;;;;10.25;4.55;;;12.90;99.90;;;;;;4183758;28;20056;-88
2023/06/04 06:00:45;;;;;;;14.63;4.35;;;13.00;99.90;;;;;;4166749;28;20053;-88
2023/06/04 06:02:48;;;;;;;7.55;3.70;;;13.10;99.90;;;;;;4183341;28;20049;-87
2023/06/04 06:04:49;;;;;;;11.95;5.00;;;13.10;99.90;;;;;;4184203;28;20045;-87
2023/06/04 06:06:51;;;;;;;11.75;4.72;;;13.20;99.90;;;;;;4188691;28;20538;-87
2023/06/04 06:08:52;;;;;;;9.60;3.92;;;13.30;99.90;;;;;;4194829;28;20420;-88
2023/06/04 06:10:53;;;;;;;7.82;3.72;;;13.40;99.90;;;;;;4182182;28;20051;-88
2023/06/04 06:12:55;;;;;;;10.98;3.88;;;13.50;99.90;;;;;;4200820;28;20080;-87
2023/06/04 06:14:58;;;;;;;6.70;3.13;;;13.20;99.90;;;;;;4199977;28;20045;-87
2023/06/04 06:17:03;;;;;;;12.43;4.60;;;13.60;99.90;;;;;;4200595;28;20036;-87
2023/06/04 06:19:03;;;;;;;13.77;3.33;;;13.80;99.90;;;;;;4199775;28;20428;-88
2023/06/04 06:21:04;;;;;;;10.77;3.30;;;13.80;99.90;;;;;;4199574;28;20127;-88
2023/06/04 06:23:08;;;;;;;10.98;3.60;;;13.90;99.90;;;;;;4187099;28;20080;-86
2023/06/04 06:25:12;;;;;;;9.18;3.80;;;14.00;99.90;;;;;;4183521;28;20162;-87
2023/06/04 06:27:13;;;;;;;13.80;3.90;;;14.10;99.90;;;;;;4194082;28;20037;-87
2023/06/04 06:29:14;;;;;;;11.98;2.88;;;14.20;99.90;;;;;;4184170;28;20060;-87
2023/06/04 06:31:15;;;;;;;7.15;2.72;;;14.20;99.90;;;;;;4182659;28;20095;-87
2023/06/04 06:33:16;;;;;;;11.45;2.72;;;14.40;99.90;;;;;;4182669;28;20052;-87
2023/06/04 06:35:17;;;;;;;9.13;3.65;;;14.40;99.90;;;;;;4183651;28;20041;-87
2023/06/04 06:37:18;;;;;;;10.85;3.10;;;14.50;99.90;;;;;;4183359;28;20048;-87
2023/06/04 06:39:19;;;;;;;4.47;1.95;;;14.50;99.90;;;;;;4183121;28;20516;-87
2023/06/04 06:41:20;;;;;;;9.90;2.05;;;14.60;99.90;;;;;;4183530;28;20041;-86
2023/06/04 06:43:21;;;;;;;6.03;2.30;;;14.70;99.90;;;;;;4182608;28;20047;-87
2023/06/04 06:45:25;;;;;;;8.02;2.15;;;14.80;99.90;;;;;;4182042;28;20077;-87
2023/06/04 06:47:25;;;;;;;5.40;1.85;;;14.80;99.90;;;;;;4182580;28;20464;-88
2023/06/04 06:49:26;;;;;;;5.30;1.60;;;14.90;99.90;;;;;;4182277;28;20052;-87
2023/06/04 06:51:27;;;;;;;5.80;1.77;;;15.00;99.90;;;;;;4181469;28;20056;-87
2023/06/04 06:53:28;;;;;;;9.48;3.08;;;15.10;99.90;;;;;;4180857;28;20087;-86
2023/06/04 06:55:28;;;;;;;7.57;1.60;;;15.20;99.90;;;;;;4183185;28;20048;-86
2023/06/04 06:57:29;;;;;;;6.35;1.48;;;15.30;99.90;;;;;;4183709;28;20040;-87
2023/06/04 06:59:30;;;;;;;5.03;1.33;;;15.40;99.90;;;;;;4182277;28;20052;-87
2023/06/04 07:01:33;;;;;;;5.15;1.20;;;15.50;99.90;;;;;;4191136;28;20080;-88
2023/06/04 07:03:34;;;;;;;6.80;1.30;;;15.60;99.90;;;;;;4199758;28;20055;-87
2023/06/04 07:05:34;;;;;;;5.75;1.58;;;15.60;99.90;;;;;;4199622;28;20072;-87
2023/06/04 07:07:36;;;;;;;5.07;1.70;;;15.70;99.90;;;;;;4199257;28;20076;-87
2023/06/04 07:09:38;;;;;;;6.25;1.20;;;15.70;99.90;;;;;;4199340;28;20408;-87
2023/06/04 07:11:39;;;;;;;7.55;1.10;;;15.90;99.90;;;;;;4199503;28;20472;-87
2023/06/04 07:13:40;;;;;;;2.35;1.30;;;15.90;99.90;;;;;;4200495;28;20037;-88
2023/06/04 07:15:43;;;;;;;3.15;1.60;;;15.90;99.90;;;;;;4200172;28;20047;-87
2023/06/04 07:17:44;;;;;;;3.15;1.08;;;16.00;99.90;;;;;;4192286;28;20040;-87
2023/06/04 07:19:44;;;;;;;4.43;1.10;;;16.10;99.90;;;;;;4182735;28;20090;-88
2023/06/04 07:21:45;;;;;;;3.97;1.38;;;16.20;99.90;;;;;;4183094;28;20141;-87
2023/06/04 07:23:49;;;;;;;7.15;1.55;;;16.30;99.90;;;;;;4200461;28;20451;-88
2023/06/04 07:25:50;;;;;;;2.22;0.95;;;16.40;99.90;;;;;;4199749;28;20404;-87
2023/06/04 07:27:50;;;;;;;5.40;1.38;;;16.50;99.90;;;;;;4199947;28;20174;-87
2023/06/04 07:29:53;;;;;;;5.72;1.83;;;16.60;99.90;;;;;;4203033;28;20048;-87
2023/06/04 07:31:53;;;;;;;7.03;1.17;;;16.60;99.90;;;;;;4187502;28;20129;-87
2023/06/04 07:33:54;;;;;;;6.72;1.83;;;16.70;99.90;;;;;;4205688;28;20041;-88
2023/06/04 07:35:55;;;;;;;7.00;1.27;;;16.80;99.90;;;;;;4202130;28;20061;-89
2023/06/04 07:37:57;;;;;;;5.13;1.40;;;16.90;99.90;;;;;;4204724;28;20153;-87
2023/06/04 07:39:59;;;;;;;4.30;0.90;;;16.90;99.90;;;;;;4187518;28;20049;-87
2023/06/04 07:42:04;;;;;;;2.17;0.93;;;17.00;99.90;;;;;;4205994;28;20047;-88
2023/06/04 07:44:05;;;;;;;4.97;1.10;;;17.10;99.90;;;;;;4205392;28;20090;-87
2023/06/04 07:46:06;;;;;;;5.68;1.20;;;17.20;99.90;;;;;;4205165;28;20036;-87
2023/06/04 07:48:08;;;;;;;7.80;1.60;;;17.30;99.90;;;;;;4205807;28;20040;-90
2023/06/04 07:50:09;;;;;;;5.80;1.50;;;17.40;99.90;;;;;;4203315;28;20048;-90
2023/06/04 07:52:11;;;;;;;6.07;1.75;;;17.50;99.90;;;;;;4204795;28;20135;-91
2023/06/04 07:54:19;;;;;;;4.70;1.30;;;17.60;99.90;;;;;;4188077;28;20057;-90
2023/06/04 07:56:20;;;;;;;9.48;1.30;;;17.90;99.90;;;;;;4204766;28;20544;-91
2023/06/04 07:58:21;;;;;;;5.75;1.13;;;18.00;99.90;;;;;;4205828;28;20068;-90
2023/06/04 08:00:22;;;;;;;7.75;1.30;;;18.10;99.90;;;;;;4203538;28;20149;-91
2023/06/04 08:02:26;;;;;;;4.78;1.13;;;18.20;99.90;;;;;;4205089;28;20048;-90
2023/06/04 08:04:27;;;;;;;4.50;1.27;;;18.30;99.90;;;;;;4203901;28;20092;-90
2023/06/04 08:06:28;;;;;;;7.57;1.42;;;18.40;99.90;;;;;;4188223;28;20049;-90
2023/06/04 08:08:29;;;;;;;1.95;1.00;;;18.50;99.90;;;;;;4195607;28;20040;-90
2023/06/04 08:10:40;;;;;;;4.25;1.30;;;18.60;99.90;;;;;;4203276;28;20048;-90
2023/06/04 08:12:41;;;;;;;5.18;1.85;;;18.70;99.90;;;;;;4206749;28;20092;-90
2023/06/04 08:14:43;;;;;;;6.80;1.20;;;18.80;99.90;;;;;;4205804;28;20036;-91
2023/06/04 08:16:44;;;;;;;4.60;1.15;;;19.00;99.90;;;;;;4188372;28;20082;-90
2023/06/04 08:18:45;;;;;;;2.78;1.00;;;19.10;99.90;;;;;;4188775;28;20041;-91
2023/06/04 08:20:46;;;;;;;4.13;1.10;;;19.20;99.90;;;;;;4201675;28;20460;-91
2023/06/04 08:22:46;;;;;;;2.35;0.90;;;19.30;99.90;;;;;;4215280;28;21689;-91
2023/06/04 08:24:53;;;;;;;3.55;0.80;;;19.30;99.90;;;;;;4222472;28;20717;-90
2023/06/04 08:26:54;;;;;;;6.50;1.20;;;19.40;99.90;;;;;;4205231;28;20477;-91
2023/06/04 08:28:55;;;;;;;2.45;0.88;;;19.60;99.90;;;;;;4218693;28;20093;-91
2023/06/04 08:30:56;;;;;;;5.28;1.17;;;19.80;99.90;;;;;;4175313;28;20048;-90
2023/06/04 08:32:57;;;;;;;5.93;1.23;;;19.90;99.90;;;;;;4187533;28;20053;-91
2023/06/04 08:34:58;;;;;;;3.33;1.08;;;19.90;99.90;;;;;;4203733;28;20048;-91
2023/06/04 08:36:58;;;;;;;4.25;1.00;;;20.10;99.90;;;;;;4198854;28;20386;-87
2023/06/04 08:39:01;;;;;;;3.50;1.00;;;19.80;99.90;;;;;;4202512;28;20428;-91
2023/06/04 08:41:12;;;;;;;6.57;1.27;;;20.20;99.90;;;;;;4186477;28;20121;-91
2023/06/04 08:43:14;;;;;;;6.25;1.70;;;20.30;99.90;;;;;;4185344;28;20041;-91
2023/06/04 08:45:16;;;;;;;1.60;0.80;;;20.40;99.90;;;;;;4193553;28;20052;-92
2023/06/04 08:47:19;;;;;;;7.63;1.40;;;;;;;;;;4181818;28;20080;-91
2023/06/04 08:49:22;;;;;;;4.45;1.05;;;20.50;99.90;;;;;;4184775;28;20468;-91
2023/06/04 08:51:26;;;;;;;3.15;1.00;;;;;;;;;;4198686;28;20041;-92
2023/06/04 08:53:30;;;;;;;4.05;1.08;;;;;;;;;;4201421;28;20040;-91
2023/06/04 08:55:33;;;;;;;4.00;1.13;;;20.40;98.90;;;;;;4201841;28;20456;-88
2023/06/04 08:57:37;;;;;;;3.17;0.90;;;21.00;98.00;;;;;;4183525;28;20102;-87
2023/06/04 08:59:38;;;;;;;4.05;1.20;;;21.20;97.80;;;;;;4183019;28;20055;-87
2023/06/04 09:01:44;;;;;;;3.35;0.98;;;21.30;97.30;;;;;;4184086;28;20492;-87
2023/06/04 09:03:45;;;;;;;4.07;0.85;;;21.30;96.80;;;;;;4167168;28;20049;-85
2023/06/04 09:05:49;;;;;;;2.90;0.93;;;21.30;96.80;;;;;;4201456;28;20381;-87
2023/06/04 09:08:00;;;;;;;3.33;1.02;;;21.40;96.30;;;;;;4209047;28;20512;-86
2023/06/04 09:10:01;;;;;;;5.90;1.00;;;21.60;95.80;;;;;;4207840;28;20040;-86
2023/06/04 09:12:11;;;;;;;2.60;0.90;;;21.70;95.50;;;;;;4182084;28;20048;-88
2023/06/04 09:14:16;;;;;;;2.65;1.30;;;21.70;94.50;;;;;;4216790;28;20058;-85
2023/06/04 09:16:17;;;;;;;2.63;0.90;;;21.80;94.90;;;;;;4216692;28;20075;-85
2023/06/04 09:18:17;;;;;;;1.73;1.02;;;21.90;94.80;;;;;;4192033;28;20416;-84
2023/06/04 09:20:21;;;;;;;2.92;0.85;;;21.90;94.50;;;;;;4207793;28;20036;-85
2023/06/04 09:22:32;;;;;;;2.97;0.90;;;;;;;;;;4181878;28;20121;-86
2023/06/04 09:24:46;;;;;;;3.40;0.90;;;22.20;94.50;;;;;;4181164;28;20094;-86
2023/06/04 09:26:47;;;;;;;5.50;0.88;;;22.30;93.10;;;;;;4182997;28;20492;-85
2023/06/04 09:28:48;;;;;;;1.67;0.80;;;22.60;93.80;;;;;;4183725;28;20120;-85
2023/06/04 09:30:55;;;;;;;2.95;0.90;;;22.70;93.80;;;;;;4182798;28;20041;-85
2023/06/04 09:33:08;;;;;;;2.80;0.80;;;22.80;93.20;;;;;;4183289;28;20045;-85
2023/06/04 09:35:14;;;;;;;4.00;1.55;;;22.80;92.90;;;;;;4185012;28;20075;-85
2023/06/04 09:37:17;;;;;;;1.33;0.70;;;22.80;93.10;;;;;;4182803;28;20386;-86
2023/06/04 09:39:18;;;;;;;6.05;0.98;;;22.90;93.10;;;;;;4188399;28;20043;-85
2023/06/04 09:41:21;;;;;;;3.67;0.95;;;23.10;93.00;;;;;;4198790;28;20051;-86
2023/06/04 09:43:25;;;;;;;0.73;0.70;;;23.30;92.60;;;;;;4198330;28;20048;-86
2023/06/04 09:45:34;;;;;;;3.30;0.80;;;23.20;92.00;;;;;;4184362;28;20045;-86
2023/06/04 09:47:42;;;;;;;6.75;1.00;;;23.50;91.80;;;;;;4181887;28;20087;-85
2023/06/04 09:49:47;;;;;;;2.05;0.90;;;23.40;91.60;;;;;;4199133;28;20087;-86
2023/06/04 09:51:49;;;;;;;1.60;0.80;;;23.60;91.50;;;;;;4182594;28;20048;-86
2023/06/04 09:53:55;;;;;;;3.90;1.05;;;23.70;91.30;;;;;;4181493;28;20106;-90
2023/06/04 09:56:00;;;;;;;4.63;1.35;;;23.80;91.00;;;;;;4178901;28;20066;-87
2023/06/04 09:58:03;;;;;;;2.28;0.70;;;24.00;90.50;;;;;;4198803;28;20040;-85
2023/06/04 10:00:09;;;;;;;2.97;0.80;;;24.30;90.30;;;;;;4198608;28;20087;-86
2023/06/04 10:02:12;;;;;;;2.13;0.98;;;24.50;90.20;;;;;;4182921;28;20055;-85
2023/06/04 10:04:14;;;;;;;2.97;0.98;;;24.60;90.40;;;;;;4181305;28;20040;-86
2023/06/04 10:06:16;;;;;;;2.38;0.90;;;24.70;89.60;;;;;;4182978;28;20170;-86
2023/06/04 10:08:18;;;;;;;3.53;0.98;;;24.80;88.80;;;;;;4182196;28;20045;-86
2023/06/04 10:10:26;;;;;;;4.35;1.00;;;24.90;88.50;;;;;;4182984;28;20045;-86
2023/06/04 10:12:35;;;;;;;3.45;0.70;;;25.00;87.20;;;;;;4183538;28;20044;-86
2023/06/04 10:14:39;;;;;;;;;;;24.90;85.60;;;;;;4180993;28;20048;-86
2023/06/04 10:16:42;;;;;;;3.85;1.33;;;24.90;86.10;;;;;;4183198;28;20004;-85
2023/06/04 10:18:44;;;;;;;2.25;0.98;;;24.80;87.30;;;;;;4181811;28;20044;-86
2023/06/04 10:20:46;;;;;;;2.65;0.80;;;24.80;86.80;;;;;;4187535;28;20097;-86
2023/06/04 10:22:48;;;;;;;2.63;1.25;;;24.90;86.90;;;;;;4198813;28;20131;-85
2023/06/04 10:24:49;;;;;;;3.17;0.90;;;25.10;86.10;;;;;;4198650;28;20053;-85
2023/06/04 10:26:55;;;;;;;3.13;0.93;;;25.20;84.30;;;;;;4181593;28;20037;-86
2023/06/04 10:28:57;;;;;;;4.05;0.90;;;25.40;83.40;;;;;;4180563;28;20099;-86
2023/06/04 10:30:58;;;;;;;1.70;0.60;;;25.30;83.30;;;;;;4182053;28;20045;-85
2023/06/04 10:33:00;;;;;;;3.45;0.93;;;;;;;;;;4199237;28;20076;-86
2023/06/04 10:35:07;;;;;;;1.92;0.75;;;25.40;83.40;;;;;;4181265;28;20044;-86
2023/06/04 10:37:24;;;;;;;2.22;0.90;;;25.70;82.30;;;;;;4199236;28;20086;-85